Aniwa, Wisconsin
Current Conditions -  °F | °C
As of 12:55 PM on Friday 21 Nov 2014 (Local Time) from KAIG Reporting Station
Clear Clear  
Wind Chill:   Ceiling: Unl
Heat Index: 19°   Visibility: 10mi
Dew Point:   Wind: 9mph
Humidity: 54%   Direction: 190°S
Pressure: 30.18"   Gusts: NA
Location:  45.01°N, 89.21°W
Report Text: KAIG 211855Z AUTO 19008KT 10SM CLR M07/M15 A3018 RMK AO2 T10741153
Loading
Personal Weather Stations






























Interactive Weather Map New forecast layout! Learn more

10-Day Weather Forecast

Advertisements
Track Severe Weather on mobile